createdAt,value
2019-04-20T00:01:58.131Z,36.23
2019-04-20T00:04:32.007Z,38.17
2019-04-20T00:07:01.830Z,44.97
2019-04-20T00:09:37.126Z,35.43
2019-04-20T00:12:16.983Z,37.57
2019-04-20T00:14:42.490Z,35.10
2019-04-20T00:17:15.876Z,31.90
2019-04-20T00:19:53.761Z,27.33
2019-04-20T00:22:34.386Z,29.63
2019-04-20T00:25:20.919Z,29.03
2019-04-20T00:28:19.908Z,26.43
2019-04-20T00:30:54.275Z,26.20
2019-04-20T00:33:27.099Z,23.70
2019-04-20T00:35:44.323Z,43.53
2019-04-20T00:38:16.375Z,37.17
2019-04-20T00:40:49.686Z,30.33
2019-04-20T00:43:28.240Z,33.93
2019-04-20T00:46:01.981Z,29.27
2019-04-20T00:48:37.561Z,23.03
2019-04-20T00:51:24.987Z,33.03
2019-04-20T00:53:41.454Z,49.00
2019-04-20T00:56:11.925Z,43.47
2019-04-20T00:58:58.238Z,53.03
2019-04-20T01:01:38.836Z,44.40
2019-04-20T01:04:10.767Z,41.37
2019-04-20T01:07:01.663Z,49.90
2019-04-20T01:09:43.162Z,40.27
2019-04-20T01:12:21.563Z,48.27
2019-04-20T01:14:56.871Z,52.90
2019-04-20T01:17:23.378Z,59.33
2019-04-20T01:19:55.581Z,62.00
2019-04-20T01:22:30.004Z,54.50
2019-04-20T01:25:09.925Z,51.40
2019-04-20T01:27:52.339Z,45.27
2019-04-20T01:30:20.097Z,40.50
2019-04-20T01:33:06.225Z,47.83
2019-04-20T01:35:44.106Z,38.77
2019-04-20T01:38:16.704Z,37.07
2019-04-20T01:40:25.404Z,34.40
2019-04-20T01:42:57.758Z,27.40
2019-04-20T01:45:35.738Z,28.60
2019-04-20T01:48:05.157Z,28.87
2019-04-20T01:50:43.844Z,25.30
2019-04-20T01:53:23.615Z,28.90
2019-04-20T01:56:05.428Z,26.70
2019-04-20T01:58:58.505Z,23.40
2019-04-20T02:01:28.116Z,25.53
2019-04-20T02:04:06.797Z,26.57
2019-04-20T02:06:43.409Z,27.57
2019-04-20T02:09:18.677Z,26.00
2019-04-20T02:11:48.771Z,23.00
2019-04-20T02:14:29.555Z,25.00
2019-04-20T02:17:05.418Z,25.93
2019-04-20T02:19:43.242Z,26.03
2019-04-20T02:22:13.575Z,29.03
2019-04-20T02:24:37.011Z,24.63
2019-04-20T02:27:10.258Z,32.70
2019-04-20T02:30:07.717Z,30.37
2019-04-20T02:33:13.930Z,27.30
2019-04-20T02:35:34.389Z,26.33
2019-04-20T02:38:10.482Z,31.93
2019-04-20T02:43:15.313Z,30.20
2019-04-20T02:45:49.077Z,25.27
2019-04-20T02:48:23.500Z,27.93
2019-04-20T02:50:59.265Z,30.93
2019-04-20T02:58:41.957Z,24.13
2019-04-20T03:01:35.899Z,21.60
2019-04-20T03:03:59.770Z,22.30
2019-04-20T03:06:39.999Z,26.27
2019-04-20T03:09:25.607Z,21.33
2019-04-20T03:14:28.012Z,25.00
2019-04-20T03:17:03.305Z,21.80
2019-04-20T03:19:32.801Z,26.83
2019-04-20T03:22:14.418Z,27.80
2019-04-20T03:24:49.587Z,30.00
2019-04-20T03:27:19.717Z,31.77
2019-04-20T03:30:39.513Z,36.40
2019-04-20T03:35:28.600Z,37.93
2019-04-20T03:38:01.560Z,36.63
2019-04-20T03:40:24.498Z,34.73
2019-04-20T03:42:44.801Z,33.63
2019-04-20T03:45:19.963Z,33.03
2019-04-20T03:48:04.447Z,36.40
2019-04-20T03:50:46.758Z,30.30
2019-04-20T03:53:23.085Z,35.23
2019-04-20T03:56:26.833Z,35.63
2019-04-20T03:58:55.173Z,35.57
2019-04-20T04:02:01.688Z,36.67
2019-04-20T04:04:45.571Z,38.27
2019-04-20T04:07:08.047Z,40.83
2019-04-20T04:09:51.139Z,37.87
2019-04-20T04:13:02.959Z,47.60
2019-04-20T04:15:42.157Z,65.93
2019-04-20T04:18:17.161Z,57.87
2019-04-20T04:20:50.013Z,55.00
2019-04-20T04:23:35.736Z,51.10
2019-04-20T04:26:10.368Z,53.50
2019-04-20T04:28:41.097Z,47.80
2019-04-20T04:31:16.559Z,48.43
2019-04-20T04:33:55.824Z,56.27
2019-04-20T04:36:20.794Z,60.80
2019-04-20T04:39:03.698Z,49.70
2019-04-20T04:41:31.690Z,64.27
2019-04-20T04:44:06.072Z,68.90
2019-04-20T04:46:22.681Z,72.77
2019-04-20T04:49:06.802Z,68.07
2019-04-20T04:51:41.685Z,55.87
2019-04-20T04:54:13.823Z,50.53
2019-04-20T04:56:35.940Z,55.70
2019-04-20T04:59:08.622Z,48.40
2019-04-20T05:01:42.074Z,47.20
2019-04-20T05:04:33.931Z,51.77
2019-04-20T05:07:05.005Z,52.93
2019-04-20T05:09:23.757Z,45.00
2019-04-20T05:12:02.839Z,40.43
2019-04-20T05:14:42.336Z,45.20
2019-04-20T05:17:20.644Z,56.83
2019-04-20T05:19:58.347Z,60.17
2019-04-20T05:22:33.637Z,65.67
2019-04-20T05:25:14.211Z,63.02
2019-04-20T05:27:53.498Z,58.65
2019-04-20T05:30:09.859Z,56.65
2019-04-20T05:32:50.365Z,40.58
2019-04-20T05:35:35.423Z,51.95
2019-04-20T05:38:13.298Z,44.27
2019-04-20T05:40:46.149Z,45.43
2019-04-20T05:43:38.726Z,48.30
2019-04-20T05:46:18.189Z,52.50
2019-04-20T05:48:51.589Z,50.05
2019-04-20T05:51:25.504Z,46.40
2019-04-20T05:53:57.051Z,53.08
2019-04-20T05:56:35.833Z,44.77
2019-04-20T05:58:59.613Z,39.20
2019-04-20T06:01:42.347Z,39.40
2019-04-20T06:04:07.589Z,35.88
2019-04-20T06:06:44.651Z,33.35
2019-04-20T06:09:22.716Z,39.03
2019-04-20T06:12:07.576Z,35.78
2019-04-20T06:14:39.366Z,37.03
2019-04-20T06:17:34.558Z,33.38
2019-04-20T06:20:05.250Z,36.33
2019-04-20T06:22:45.705Z,34.13
2019-04-20T06:25:39.072Z,34.23
2019-04-20T06:27:57.151Z,31.68
2019-04-20T06:30:26.260Z,34.92
2019-04-20T06:34:11.375Z,34.03
2019-04-20T06:36:35.359Z,33.95
2019-04-20T06:39:07.974Z,30.27
2019-04-20T06:42:00.138Z,27.27
2019-04-20T06:44:15.052Z,26.02
2019-04-20T06:46:53.665Z,27.90
2019-04-20T06:52:20.366Z,25.88
2019-04-20T06:55:08.751Z,27.07
2019-04-20T07:00:17.997Z,22.60
2019-04-20T07:03:07.960Z,21.95
2019-04-20T07:05:27.378Z,22.40
2019-04-20T07:08:16.710Z,23.02
2019-04-20T07:10:37.615Z,21.15
2019-04-20T07:13:03.669Z,18.40
2019-04-20T07:15:56.960Z,16.20
2019-04-20T07:18:42.636Z,18.05
2019-04-20T07:21:35.662Z,15.72
2019-04-20T07:24:03.687Z,15.32
2019-04-20T07:26:32.476Z,15.68
2019-04-20T07:29:13.451Z,15.45
2019-04-20T07:31:29.320Z,17.32
2019-04-20T07:34:10.513Z,16.17
2019-04-20T07:36:45.820Z,14.70
2019-04-20T07:39:26.611Z,16.25
2019-04-20T07:41:57.227Z,17.37
2019-04-20T07:44:28.100Z,24.35
2019-04-20T07:47:01.638Z,17.65
2019-04-20T07:49:28.986Z,16.12
2019-04-20T07:51:46.070Z,19.95
2019-04-20T07:54:50.684Z,18.90
2019-04-20T07:57:10.271Z,20.40
2019-04-20T07:59:39.707Z,17.25
2019-04-20T08:02:46.933Z,16.97
2019-04-20T08:05:17.037Z,13.83
2019-04-20T08:07:45.160Z,15.80
2019-04-20T08:10:25.119Z,13.75
2019-04-20T08:13:09.450Z,15.28
2019-04-20T08:15:58.450Z,17.37
2019-04-20T08:18:13.685Z,16.57
2019-04-20T08:20:48.929Z,17.85
2019-04-20T08:23:23.245Z,27.95
2019-04-20T08:25:47.409Z,19.20
2019-04-20T08:28:34.904Z,15.93
2019-04-20T08:31:29.761Z,14.20
2019-04-20T08:34:31.230Z,15.00
2019-04-20T08:36:47.793Z,16.67
2019-04-20T08:39:30.488Z,18.17
2019-04-20T08:41:55.986Z,18.42
2019-04-20T08:44:47.059Z,20.12
2019-04-20T08:49:35.054Z,21.62
2019-04-20T08:52:31.908Z,25.85
2019-04-20T08:54:37.888Z,27.77
2019-04-20T08:56:59.924Z,33.10
2019-04-20T08:59:33.203Z,30.65
2019-04-20T09:02:09.868Z,29.23
2019-04-20T09:04:45.086Z,30.30
2019-04-20T09:07:17.865Z,27.42
2019-04-20T09:10:12.327Z,31.77
2019-04-20T09:12:36.936Z,31.37
2019-04-20T09:14:53.073Z,34.38
2019-04-20T09:17:46.574Z,39.48
2019-04-20T09:20:27.011Z,42.70
2019-04-20T09:23:14.568Z,42.58
2019-04-20T09:28:27.351Z,45.45
2019-04-20T09:31:11.864Z,49.63
2019-04-20T09:34:07.041Z,52.08
2019-04-20T09:36:40.944Z,52.13
2019-04-20T09:39:26.344Z,51.20
2019-04-20T09:42:11.245Z,51.00
2019-04-20T09:44:48.774Z,54.33
2019-04-20T09:47:23.479Z,59.58
2019-04-20T09:50:01.463Z,60.28
2019-04-20T09:52:37.755Z,55.15
2019-04-20T09:55:10.686Z,52.35
2019-04-20T09:57:51.263Z,54.53
2019-04-20T10:00:23.932Z,50.33
2019-04-20T10:02:41.694Z,49.25
2019-04-20T10:05:15.603Z,54.10
2019-04-20T10:07:55.973Z,59.50
2019-04-20T10:10:31.327Z,61.10
2019-04-20T10:12:56.289Z,56.15
2019-04-20T10:15:31.032Z,55.08
2019-04-20T10:18:02.052Z,60.65
2019-04-20T10:20:37.912Z,67.12
2019-04-20T10:23:08.751Z,69.32
2019-04-20T10:25:42.505Z,71.37
2019-04-20T10:28:15.874Z,70.92
2019-04-20T10:30:48.404Z,74.92
2019-04-20T10:33:21.696Z,76.02
2019-04-20T10:35:53.997Z,73.52
2019-04-20T10:38:33.961Z,73.45
2019-04-20T10:41:13.013Z,69.05
2019-04-20T10:43:38.749Z,71.28
2019-04-20T10:46:11.118Z,75.97
2019-04-20T10:48:47.936Z,76.72
2019-04-20T10:51:17.731Z,69.55
2019-04-20T10:53:50.606Z,62.85
2019-04-20T10:56:23.275Z,56.60
2019-04-20T10:58:55.875Z,49.58
2019-04-20T11:01:27.983Z,44.20
2019-04-20T11:04:00.767Z,38.73
2019-04-20T11:06:32.913Z,30.77
2019-04-20T11:09:07.141Z,25.45
2019-04-20T11:11:39.095Z,21.00
2019-04-20T11:14:19.070Z,15.38
2019-04-20T11:16:44.937Z,11.22
2019-04-20T11:19:16.830Z,9.43
2019-04-20T11:21:50.175Z,8.40
2019-04-20T11:24:22.454Z,7.00
2019-04-20T11:26:54.601Z,7.55
2019-04-20T11:29:26.735Z,5.50
2019-04-20T11:31:59.473Z,4.60
2019-04-20T11:34:35.355Z,3.87
2019-04-20T11:37:06.904Z,5.83
2019-04-20T11:39:39.188Z,3.60
2019-04-20T11:42:11.857Z,6.20
2019-04-20T11:44:44.755Z,4.67
2019-04-20T11:47:16.919Z,7.00
2019-04-20T11:49:49.384Z,5.97
2019-04-20T11:52:23.268Z,4.65
2019-04-20T11:54:55.391Z,8.93
2019-04-20T11:57:27.399Z,6.85
2019-04-20T12:00:01.121Z,9.88
2019-04-20T12:02:54.177Z,6.28
2019-04-20T12:05:34.720Z,5.05
2019-04-20T12:08:07.008Z,5.40
2019-04-20T12:10:39.391Z,6.40
2019-04-20T12:13:14.503Z,7.10
2019-04-20T12:15:47.543Z,7.28
2019-04-20T12:18:21.515Z,6.70
2019-04-20T12:20:54.708Z,8.35
2019-04-20T12:23:26.934Z,8.93
2019-04-20T12:25:59.799Z,6.53
2019-04-20T12:28:31.866Z,15.25
2019-04-20T12:31:11.410Z,9.03
2019-04-20T12:33:37.576Z,11.60
2019-04-20T12:36:10.659Z,10.43
2019-04-20T12:38:43.372Z,11.97
2019-04-20T12:41:16.172Z,10.95
2019-04-20T12:43:48.285Z,15.32
2019-04-20T12:46:22.999Z,9.43
2019-04-20T12:48:55.589Z,8.55
2019-04-20T12:51:33.916Z,9.73
2019-04-20T12:54:02.587Z,9.93
2019-04-20T12:56:38.419Z,8.83
2019-04-20T12:59:11.632Z,8.95
2019-04-20T13:01:43.858Z,7.40
2019-04-20T13:04:16.500Z,10.68
2019-04-20T13:06:49.906Z,6.07
2019-04-20T13:09:23.555Z,9.93
2019-04-20T13:12:15.592Z,5.83
2019-04-20T13:15:20.314Z,5.45
2019-04-20T13:17:54.223Z,5.60
2019-04-20T13:20:26.292Z,5.93
2019-04-20T13:23:02.604Z,6.27
2019-04-20T13:25:35.036Z,9.53
2019-04-20T13:28:07.400Z,5.97
2019-04-20T13:30:40.211Z,10.03
2019-04-20T13:33:14.188Z,7.07
2019-04-20T13:35:46.404Z,7.93
2019-04-20T13:38:18.463Z,10.80
2019-04-20T13:40:51.477Z,5.97
2019-04-20T13:43:26.284Z,4.83
2019-04-20T13:45:58.260Z,7.07
2019-04-20T13:48:31.013Z,5.67
2019-04-20T13:51:04.156Z,8.03
2019-04-20T13:53:37.202Z,5.83
2019-04-20T13:56:10.055Z,7.97
2019-04-20T13:59:16.351Z,5.43
2019-04-20T14:01:53.724Z,6.47
2019-04-20T14:04:34.747Z,4.03
2019-04-20T14:07:06.857Z,6.37
2019-04-20T14:09:39.494Z,5.07
2019-04-20T14:12:22.018Z,6.50
2019-04-20T14:14:45.333Z,6.90
2019-04-20T14:17:19.199Z,8.37
2019-04-20T14:19:52.905Z,6.37
2019-04-20T14:22:25.066Z,7.97
2019-04-20T14:24:57.380Z,5.67
2019-04-20T14:27:30.741Z,8.27
2019-04-20T14:30:03.463Z,8.10
2019-04-20T14:32:36.805Z,10.70
2019-04-20T14:35:09.298Z,7.27
2019-04-20T14:37:41.650Z,5.93
2019-04-20T14:40:14.559Z,7.70
2019-04-20T14:42:50.359Z,5.27
2019-04-20T14:45:20.906Z,8.60
2019-04-20T14:47:53.954Z,5.03
2019-04-20T14:50:27.519Z,5.83
2019-04-20T14:52:59.870Z,6.20
2019-04-20T14:55:33.334Z,10.40
2019-04-20T14:58:11.137Z,8.37
2019-04-20T15:00:53.050Z,8.03
2019-04-20T15:03:30.582Z,6.33
2019-04-20T15:06:03.391Z,6.43
2019-04-20T15:08:36.758Z,7.47
2019-04-20T15:11:09.293Z,7.63
2019-04-20T15:13:42.568Z,6.70
2019-04-20T15:16:15.114Z,6.77
2019-04-20T15:18:52.990Z,6.30
2019-04-20T15:21:27.274Z,8.17
2019-04-20T15:24:01.724Z,7.40
2019-04-20T15:26:34.300Z,8.10
2019-04-20T15:29:06.645Z,8.57
2019-04-20T15:31:38.739Z,6.87
2019-04-20T15:34:11.090Z,8.93
2019-04-20T15:36:44.299Z,8.70
2019-04-20T15:39:16.897Z,4.73
2019-04-20T15:41:49.566Z,7.97
2019-04-20T15:44:21.667Z,9.37
2019-04-20T15:46:55.162Z,5.40
2019-04-20T15:49:28.377Z,3.90
2019-04-20T15:52:01.743Z,5.23
2019-04-20T15:54:34.089Z,7.77
2019-04-20T15:57:12.738Z,6.00
2019-04-20T15:59:40.216Z,6.33
2019-04-20T16:02:17.828Z,5.83
2019-04-20T16:04:54.414Z,5.30
2019-04-20T16:07:26.424Z,5.60
2019-04-20T16:09:59.103Z,4.87
2019-04-20T16:12:31.273Z,6.13
2019-04-20T16:15:03.961Z,4.40
2019-04-20T16:17:41.880Z,5.40
2019-04-20T16:20:15.691Z,7.47
2019-04-20T16:22:45.123Z,7.00
2019-04-20T16:25:43.677Z,6.20
2019-04-20T16:28:17.270Z,6.40
2019-04-20T16:30:49.797Z,6.67
2019-04-20T16:33:21.992Z,10.77
2019-04-20T16:35:54.314Z,7.00
2019-04-20T16:38:30.134Z,9.23
2019-04-20T16:41:00.421Z,8.33
2019-04-20T16:43:36.488Z,9.30
2019-04-20T16:46:06.528Z,6.17
2019-04-20T16:48:40.038Z,8.60
2019-04-20T16:51:13.895Z,8.97
2019-04-20T16:53:45.925Z,8.00
2019-04-20T16:56:21.976Z,7.40
2019-04-20T16:58:55.957Z,9.70
2019-04-20T17:01:27.522Z,8.77
2019-04-20T17:04:06.760Z,9.60
2019-04-20T17:06:35.908Z,9.37
2019-04-20T17:09:10.067Z,9.03
2019-04-20T17:11:43.764Z,8.33
2019-04-20T17:14:16.952Z,9.00
2019-04-20T17:16:49.386Z,9.70
2019-04-20T17:19:21.897Z,13.33
2019-04-20T17:21:57.102Z,13.77
2019-04-20T17:24:29.314Z,15.07
2019-04-20T17:27:33.033Z,18.17
2019-04-20T17:30:27.409Z,31.83
2019-04-20T17:33:04.206Z,29.00
2019-04-20T17:35:47.596Z,24.20
2019-04-20T17:38:10.857Z,25.07
2019-04-20T17:41:01.563Z,29.53
2019-04-20T17:43:25.209Z,24.63
2019-04-20T17:46:00.671Z,16.63
2019-04-20T17:48:36.052Z,20.03
2019-04-20T17:51:16.804Z,18.30
2019-04-20T17:53:58.535Z,16.90
2019-04-20T17:56:28.609Z,38.10
2019-04-20T17:59:01.786Z,37.03
2019-04-20T18:02:11.852Z,22.90
2019-04-20T18:05:06.563Z,16.77
2019-04-20T18:07:35.430Z,17.97
2019-04-20T18:10:08.109Z,16.47
2019-04-20T18:12:26.751Z,20.00
2019-04-20T18:15:06.171Z,22.33
2019-04-20T18:18:02.701Z,15.40
2019-04-20T18:20:25.049Z,13.17
2019-04-20T18:22:58.807Z,12.77
2019-04-20T18:26:01.532Z,15.50
2019-04-20T18:28:20.938Z,13.97
2019-04-20T18:30:52.517Z,16.10
2019-04-20T18:33:24.977Z,12.80
2019-04-20T18:35:56.302Z,16.27
2019-04-20T18:38:30.544Z,16.17
2019-04-20T18:41:07.017Z,18.87
2019-04-20T18:43:43.900Z,17.47
2019-04-20T18:46:26.023Z,18.87
2019-04-20T18:49:02.888Z,17.47
2019-04-20T18:51:17.674Z,16.93
2019-04-20T18:53:51.831Z,20.03
2019-04-20T18:56:31.354Z,19.77
2019-04-20T18:58:58.880Z,23.63
2019-04-20T19:01:36.049Z,18.50
2019-04-20T19:04:05.748Z,18.40
2019-04-20T19:06:38.147Z,20.37
2019-04-20T19:09:16.719Z,20.53
2019-04-20T19:11:50.883Z,22.90
2019-04-20T19:14:40.799Z,20.63
2019-04-20T19:17:45.114Z,19.13
2019-04-20T19:20:16.017Z,20.43
2019-04-20T19:22:48.297Z,19.13
2019-04-20T19:25:27.606Z,19.47
2019-04-20T19:27:57.546Z,19.63
2019-04-20T19:30:37.459Z,20.97
2019-04-20T19:33:19.111Z,21.60
2019-04-20T19:35:45.421Z,20.50
2019-04-20T19:38:20.323Z,18.33
2019-04-20T19:40:55.878Z,21.90
2019-04-20T19:43:28.031Z,21.40
2019-04-20T19:46:35.607Z,20.17
2019-04-20T19:48:39.324Z,18.43
2019-04-20T19:51:25.625Z,21.40
2019-04-20T19:53:53.127Z,21.37
2019-04-20T19:56:28.124Z,22.20
2019-04-20T19:58:56.379Z,26.10
2019-04-20T20:01:17.648Z,23.23
2019-04-20T20:03:56.557Z,26.60
2019-04-20T20:06:33.246Z,28.67
2019-04-20T20:09:03.720Z,25.33
2019-04-20T20:11:35.342Z,31.47
2019-04-20T20:14:08.239Z,26.13
2019-04-20T20:17:01.526Z,28.10
2019-04-20T20:19:29.534Z,25.57
2019-04-20T20:22:00.378Z,32.17
2019-04-20T20:24:21.449Z,28.17
2019-04-20T20:27:00.405Z,33.27
2019-04-20T20:29:34.144Z,28.57
2019-04-20T20:32:15.468Z,30.13
2019-04-20T20:34:40.475Z,31.23
2019-04-20T20:37:14.090Z,27.43
2019-04-20T20:39:54.783Z,29.40
2019-04-20T20:42:29.383Z,27.40
2019-04-20T20:44:57.523Z,27.17
2019-04-20T20:47:48.528Z,25.70
2019-04-20T20:50:30.026Z,29.17
2019-04-20T20:52:53.655Z,29.47
2019-04-20T20:55:22.141Z,33.00
2019-04-20T20:57:53.645Z,29.27
2019-04-20T21:00:28.240Z,29.43
2019-04-20T21:02:58.160Z,27.83
2019-04-20T21:05:23.764Z,28.20
2019-04-20T21:07:55.853Z,29.00
2019-04-20T21:10:31.916Z,26.93
2019-04-20T21:13:06.555Z,25.53
2019-04-20T21:15:35.512Z,27.80
2019-04-20T21:18:29.330Z,31.13
2019-04-20T21:21:00.039Z,30.87
2019-04-20T21:23:31.688Z,35.17
2019-04-20T21:26:12.760Z,32.80
2019-04-20T21:28:43.765Z,36.73
2019-04-20T21:31:21.683Z,35.47
2019-04-20T21:33:50.968Z,30.00
2019-04-20T21:36:27.913Z,31.27
2019-04-20T21:38:58.124Z,29.53
2019-04-20T21:41:30.983Z,30.70
2019-04-20T21:44:05.533Z,36.27
2019-04-20T21:46:43.749Z,36.70
2019-04-20T21:49:27.412Z,34.93
2019-04-20T21:51:54.575Z,32.50
2019-04-20T21:54:18.494Z,36.67
2019-04-20T21:56:57.514Z,31.97
2019-04-20T21:59:32.135Z,31.73
2019-04-20T22:02:10.043Z,32.13
2019-04-20T22:04:33.351Z,31.33
2019-04-20T22:07:06.236Z,30.50
2019-04-20T22:09:41.374Z,27.87
2019-04-20T22:12:12.126Z,32.07
2019-04-20T22:14:50.936Z,30.20
2019-04-20T22:17:25.955Z,31.43
2019-04-20T22:20:06.055Z,33.30
2019-04-20T22:22:42.406Z,28.77
2019-04-20T22:25:16.221Z,29.57
2019-04-20T22:27:35.073Z,30.73
2019-04-20T22:30:08.305Z,33.17
2019-04-20T22:32:44.332Z,28.67
2019-04-20T22:35:16.252Z,30.60
2019-04-20T22:38:07.061Z,29.17
2019-04-20T22:40:36.695Z,27.83
2019-04-20T22:43:10.264Z,24.67
2019-04-20T22:45:46.739Z,26.17
2019-04-20T22:48:18.015Z,27.53
2019-04-20T22:51:11.317Z,30.10
2019-04-20T22:53:37.618Z,36.30
2019-04-20T22:56:18.632Z,29.60
2019-04-20T22:58:45.538Z,28.13
2019-04-20T23:01:17.386Z,28.60
2019-04-20T23:03:38.907Z,32.67
2019-04-20T23:06:12.496Z,30.30
2019-04-20T23:08:47.290Z,24.33
2019-04-20T23:11:26.470Z,34.00
2019-04-20T23:13:53.365Z,31.53
2019-04-20T23:16:28.791Z,30.83
2019-04-20T23:19:00.318Z,28.57
2019-04-20T23:21:32.409Z,28.70
2019-04-20T23:24:09.494Z,29.23
2019-04-20T23:26:42.131Z,30.40
2019-04-20T23:29:13.247Z,30.43
2019-04-20T23:31:52.163Z,26.80
2019-04-20T23:34:23.179Z,24.87
2019-04-20T23:36:52.900Z,31.03
2019-04-20T23:39:33.994Z,33.70
2019-04-20T23:42:03.777Z,28.43
2019-04-20T23:44:52.071Z,27.93
2019-04-20T23:47:47.847Z,29.90
2019-04-20T23:50:38.223Z,31.77
2019-04-20T23:53:10.115Z,32.20
2019-04-20T23:55:23.884Z,30.00
2019-04-20T23:57:59.469Z,25.47
